createdAt,value
2022-10-17T00:01:37.868Z,102097.34
2022-10-17T00:04:04.358Z,102087.28
2022-10-17T00:06:30.790Z,102093.09
2022-10-17T00:08:57.145Z,102079.94
2022-10-17T00:11:24.197Z,102085.59
2022-10-17T00:13:51.828Z,102075.72
2022-10-17T00:16:28.634Z,102085.59
2022-10-17T00:18:55.157Z,102084.56
2022-10-17T00:21:21.838Z,102077.28
2022-10-17T00:23:48.235Z,102087.16
2022-10-17T00:26:15.052Z,102088.19
2022-10-17T00:28:41.562Z,102085.59
2022-10-17T00:31:08.256Z,102079.13
2022-10-17T00:33:35.098Z,102082.88
2022-10-17T00:36:04.661Z,102088.31
2022-10-17T00:38:31.120Z,102089.16
2022-10-17T00:40:57.525Z,102077.59
2022-10-17T00:43:24.103Z,102074.88
2022-10-17T00:45:50.498Z,102082.00
2022-10-17T00:48:21.167Z,102076.56
2022-10-17T00:50:49.952Z,102092.75
2022-10-17T00:53:16.628Z,102088.31
2022-10-17T00:55:46.311Z,102097.53
2022-10-17T00:58:12.919Z,102100.25
2022-10-17T01:00:39.970Z,102087.78
2022-10-17T01:03:06.314Z,102077.72
2022-10-17T01:05:33.047Z,102081.34
2022-10-17T01:07:59.584Z,102084.91
2022-10-17T01:10:46.168Z,102091.03
2022-10-17T01:13:18.858Z,102100.06
2022-10-17T01:15:57.274Z,102094.50
2022-10-17T01:18:29.852Z,102091.91
2022-10-17T01:21:10.820Z,102092.91
2022-10-17T01:23:57.434Z,102082.00
2022-10-17T01:26:23.820Z,102089.50
2022-10-17T01:29:09.093Z,102094.78
2022-10-17T01:31:41.445Z,102106.72
2022-10-17T01:34:16.004Z,102095.81
2022-10-17T01:36:45.218Z,102095.66
2022-10-17T01:39:26.888Z,102101.94
2022-10-17T01:41:55.696Z,102102.81
2022-10-17T01:44:32.531Z,102099.94
2022-10-17T01:47:03.227Z,102095.34
2022-10-17T01:49:32.066Z,102086.44
2022-10-17T01:52:01.729Z,102076.41
2022-10-17T01:54:31.539Z,102084.44
2022-10-17T01:56:59.757Z,102084.44
2022-10-17T01:59:29.978Z,102078.13
2022-10-17T02:01:58.503Z,102080.00
2022-10-17T02:04:25.425Z,102070.81
2022-10-17T02:06:51.823Z,102064.63
2022-10-17T02:09:19.617Z,102060.03
2022-10-17T02:12:04.971Z,102061.91
2022-10-17T02:14:51.739Z,102054.75
2022-10-17T02:17:24.121Z,102054.75
2022-10-17T02:19:55.487Z,102049.31
2022-10-17T02:22:35.294Z,102048.75
2022-10-17T02:25:01.715Z,102050.31
2022-10-17T02:27:47.734Z,102050.16
2022-10-17T02:30:32.093Z,102050.88
2022-10-17T02:32:58.438Z,102040.97
2022-10-17T02:35:27.467Z,102041.97
2022-10-17T02:37:54.276Z,102040.97
2022-10-17T02:40:22.088Z,102040.97
2022-10-17T02:42:49.591Z,102042.84
2022-10-17T02:45:16.528Z,102047.28
2022-10-17T02:47:57.339Z,102040.81
2022-10-17T02:53:05.653Z,102045.78
2022-10-17T02:55:33.827Z,102045.63
2022-10-17T02:58:02.749Z,102056.69
2022-10-17T03:00:30.026Z,102049.53
2022-10-17T03:02:56.482Z,102053.25
2022-10-17T03:05:24.072Z,102040.66
2022-10-17T03:07:50.637Z,102042.69
2022-10-17T03:10:17.158Z,102044.72
2022-10-17T03:12:43.560Z,102036.53
2022-10-17T03:15:10.265Z,102043.19
2022-10-17T03:17:37.114Z,102045.78
2022-10-17T03:20:04.487Z,102035.38
2022-10-17T03:22:31.146Z,102034.16
2022-10-17T03:24:58.490Z,102025.31
2022-10-17T03:27:25.199Z,102030.06
2022-10-17T03:29:51.531Z,102021.38
2022-10-17T03:32:17.917Z,102029.44
2022-10-17T03:34:44.377Z,102019.38
2022-10-17T03:37:10.732Z,102022.78
2022-10-17T03:39:37.130Z,102035.25
2022-10-17T03:42:03.505Z,102025.19
2022-10-17T03:44:29.988Z,102032.53
2022-10-17T03:46:56.717Z,102035.25
2022-10-17T03:49:23.113Z,102037.97
2022-10-17T03:51:49.523Z,102040.03
2022-10-17T03:54:15.848Z,102035.72
2022-10-17T03:56:42.474Z,102042.75
2022-10-17T03:59:12.451Z,102038.16
2022-10-17T04:01:38.967Z,102029.63
2022-10-17T04:04:05.676Z,102026.06
2022-10-17T04:06:32.487Z,102013.44
2022-10-17T04:08:59.145Z,102009.00
2022-10-17T04:11:25.478Z,102007.81
2022-10-17T04:13:55.721Z,101998.66
2022-10-17T04:16:22.555Z,101997.78
2022-10-17T04:18:52.580Z,101998.47
2022-10-17T04:21:19.348Z,102004.94
2022-10-17T04:23:45.779Z,101995.06
2022-10-17T04:26:12.203Z,101997.78
2022-10-17T04:31:07.255Z,101990.47
2022-10-17T04:33:34.465Z,101994.19
2022-10-17T04:36:22.922Z,101990.59
2022-10-17T04:38:49.377Z,101999.50
2022-10-17T04:41:17.590Z,101999.50
2022-10-17T04:43:46.916Z,101994.03
2022-10-17T04:46:16.596Z,102006.81
2022-10-17T04:48:42.998Z,102003.06
2022-10-17T04:51:11.761Z,101999.50
2022-10-17T04:53:38.577Z,102000.53
2022-10-17T04:56:09.001Z,101998.66
2022-10-17T04:58:35.395Z,101995.06
2022-10-17T05:01:09.102Z,101997.09
2022-10-17T05:03:35.650Z,101995.38
2022-10-17T05:06:12.304Z,102001.38
2022-10-17T05:08:38.765Z,102005.63
2022-10-17T05:11:05.878Z,102004.63
2022-10-17T05:13:33.003Z,102003.06
2022-10-17T05:16:00.203Z,101999.31
2022-10-17T05:18:27.287Z,102003.75
2022-10-17T05:20:53.721Z,102000.03
2022-10-17T05:23:20.077Z,102001.03
2022-10-17T05:25:46.501Z,102001.03
2022-10-17T05:28:12.846Z,101996.47
2022-10-17T05:30:39.235Z,101994.91
2022-10-17T05:33:05.628Z,101991.16
2022-10-17T05:35:32.100Z,101995.56
2022-10-17T05:37:59.033Z,102000.03
2022-10-17T05:40:25.499Z,101989.44
2022-10-17T05:42:52.040Z,101994.34
2022-10-17T05:45:18.664Z,101996.06
2022-10-17T05:47:47.424Z,101997.63
2022-10-17T05:50:13.825Z,101998.47
2022-10-17T05:52:41.944Z,101999.19
2022-10-17T05:55:10.397Z,102008.91
2022-10-17T05:57:36.878Z,102010.78
2022-10-17T06:00:03.980Z,102016.22
2022-10-17T06:02:30.719Z,102003.44
2022-10-17T06:04:57.499Z,102011.50
2022-10-17T06:07:23.860Z,102016.97
2022-10-17T06:09:50.440Z,102014.25
2022-10-17T06:12:16.778Z,102021.50
2022-10-17T06:14:43.207Z,102019.69
2022-10-17T06:17:14.841Z,102025.16
2022-10-17T06:19:42.440Z,102025.16
2022-10-17T06:22:08.854Z,102026.84
2022-10-17T06:24:35.354Z,102016.97
2022-10-17T06:27:01.693Z,102031.44
2022-10-17T06:29:28.044Z,102038.78
2022-10-17T06:31:54.433Z,102042.47
2022-10-17T06:34:20.877Z,102047.91
2022-10-17T06:36:47.318Z,102037.88
2022-10-17T06:39:13.759Z,102042.63
2022-10-17T06:41:41.398Z,102040.75
2022-10-17T06:44:13.972Z,102046.22
2022-10-17T06:46:40.802Z,102050.81
2022-10-17T06:49:07.293Z,102042.47
2022-10-17T06:51:37.406Z,102053.38
2022-10-17T06:54:04.373Z,102047.38
2022-10-17T06:56:30.899Z,102067.88
2022-10-17T06:58:57.402Z,102052.53
2022-10-17T07:01:23.841Z,102056.09
2022-10-17T07:03:50.284Z,102049.69
2022-10-17T07:06:17.961Z,102057.88
2022-10-17T07:08:45.151Z,102059.56
2022-10-17T07:11:18.638Z,102055.16
2022-10-17T07:13:45.363Z,102065.03
2022-10-17T07:16:12.070Z,102066.94
2022-10-17T07:18:38.746Z,102061.13
2022-10-17T07:21:05.522Z,102051.56
2022-10-17T07:23:31.992Z,102043.19
2022-10-17T07:26:02.357Z,102047.72
2022-10-17T07:28:29.110Z,102042.81
2022-10-17T07:30:55.591Z,102038.78
2022-10-17T07:33:21.966Z,102037.59
2022-10-17T07:35:48.333Z,102045.47
2022-10-17T07:38:14.697Z,102052.63
2022-10-17T07:40:41.016Z,102049.03
2022-10-17T07:43:07.469Z,102048.00
2022-10-17T07:45:33.922Z,102047.00
2022-10-17T07:48:00.318Z,102051.44
2022-10-17T07:50:26.748Z,102055.16
2022-10-17T07:52:53.269Z,102053.31
2022-10-17T07:55:19.737Z,102054.19
2022-10-17T07:57:46.184Z,102048.72
2022-10-17T08:00:12.798Z,102051.44
2022-10-17T08:02:39.611Z,102053.16
2022-10-17T08:05:06.250Z,102052.31
2022-10-17T08:07:32.734Z,102055.88
2022-10-17T08:10:00.260Z,102055.88
2022-10-17T08:12:26.943Z,102054.00
2022-10-17T08:14:53.540Z,102052.13
2022-10-17T08:17:19.972Z,102061.16
2022-10-17T08:19:46.431Z,102051.09
2022-10-17T08:22:12.826Z,102054.72
2022-10-17T08:24:39.256Z,102056.78
2022-10-17T08:27:11.418Z,102055.63
2022-10-17T08:29:38.513Z,102050.00
2022-10-17T08:32:07.668Z,102053.56
2022-10-17T08:34:35.546Z,102049.81
2022-10-17T08:37:02.111Z,102045.06
2022-10-17T08:39:28.836Z,102040.28
2022-10-17T08:42:04.181Z,102038.28
2022-10-17T08:44:36.870Z,102035.56
2022-10-17T08:47:04.566Z,102041.84
2022-10-17T08:49:52.546Z,102038.09
2022-10-17T08:52:32.398Z,102030.63
2022-10-17T08:54:59.659Z,102026.03
2022-10-17T08:57:26.283Z,102029.44
2022-10-17T08:59:54.238Z,102033.00
2022-10-17T09:02:39.734Z,102020.88
2022-10-17T09:05:26.559Z,102032.88
2022-10-17T09:08:22.752Z,102028.09
2022-10-17T09:11:00.554Z,102032.53
2022-10-17T09:13:30.136Z,102031.53
2022-10-17T09:16:11.570Z,102032.38
2022-10-17T09:18:43.129Z,102036.63
2022-10-17T09:21:39.579Z,102045.53
2022-10-17T09:24:15.785Z,102038.19
2022-10-17T09:26:44.384Z,102046.06
2022-10-17T09:29:15.441Z,102049.63
2022-10-17T09:31:47.371Z,102053.22
2022-10-17T09:34:14.514Z,102049.47
2022-10-17T09:36:40.907Z,102055.78
2022-10-17T09:39:16.761Z,102056.47
2022-10-17T09:41:49.840Z,102050.84
2022-10-17T09:44:21.843Z,102046.25
2022-10-17T09:47:07.248Z,102033.28
2022-10-17T09:49:38.336Z,102033.28
2022-10-17T09:52:06.894Z,102033.97
2022-10-17T09:54:41.437Z,102031.25
2022-10-17T09:57:09.723Z,102027.53
2022-10-17T09:59:37.810Z,102032.81
2022-10-17T10:02:24.470Z,102022.59
2022-10-17T10:05:04.082Z,102023.44
2022-10-17T10:07:38.756Z,102018.66
2022-10-17T10:10:22.828Z,102022.22
2022-10-17T10:13:02.168Z,102022.09
2022-10-17T10:15:33.951Z,102023.78
2022-10-17T10:18:00.375Z,102022.75
2022-10-17T10:20:26.823Z,102022.75
2022-10-17T10:23:12.462Z,102018.84
2022-10-17T10:25:48.797Z,102019.72
2022-10-17T10:28:16.008Z,102012.38
2022-10-17T10:30:46.848Z,102015.66
2022-10-17T10:33:13.333Z,102019.06
2022-10-17T10:35:39.806Z,102005.59
2022-10-17T10:38:17.190Z,102011.91
2022-10-17T10:40:48.099Z,102017.19
2022-10-17T10:43:26.905Z,102021.97
2022-10-17T10:45:53.499Z,102020.94
2022-10-17T10:48:23.180Z,102030.84
2022-10-17T10:50:49.643Z,102029.00
2022-10-17T10:53:34.957Z,102027.97
2022-10-17T10:56:04.833Z,102024.19
2022-10-17T10:58:35.266Z,102032.41
2022-10-17T11:01:14.487Z,102019.44
2022-10-17T11:04:01.260Z,102011.41
2022-10-17T11:06:29.200Z,102014.84
2022-10-17T11:09:04.420Z,102012.03
2022-10-17T11:11:40.553Z,102006.22
2022-10-17T11:14:13.756Z,101998.00
2022-10-17T11:16:44.876Z,102016.13
2022-10-17T11:19:14.609Z,102003.16
2022-10-17T11:24:15.556Z,102007.75
2022-10-17T11:26:45.099Z,102002.31
2022-10-17T11:29:12.533Z,101995.13
2022-10-17T11:31:43.261Z,101991.38
2022-10-17T11:34:20.627Z,102000.41
2022-10-17T11:36:49.645Z,101998.53
2022-10-17T11:39:22.742Z,101980.63
2022-10-17T11:42:04.266Z,101983.19
2022-10-17T11:44:37.952Z,101978.75
2022-10-17T11:47:04.437Z,101979.78
2022-10-17T11:49:38.194Z,101975.31
2022-10-17T11:52:37.382Z,101973.44
2022-10-17T11:55:13.437Z,101974.47
2022-10-17T11:57:46.131Z,101970.91
2022-10-17T12:00:25.122Z,101967.31
2022-10-17T12:03:00.476Z,101965.63
2022-10-17T12:05:26.900Z,101954.69
2022-10-17T12:08:01.155Z,101957.41
2022-10-17T12:10:39.382Z,101955.53
2022-10-17T12:13:24.647Z,101960.16
2022-10-17T12:15:51.046Z,101956.56
2022-10-17T12:18:17.598Z,101961.16
2022-10-17T12:20:55.646Z,101956.72
2022-10-17T12:23:26.101Z,101963.03
2022-10-17T12:25:52.568Z,101951.25
2022-10-17T12:28:27.389Z,101954.84
2022-10-17T12:31:05.904Z,101944.09
2022-10-17T12:33:32.384Z,101948.69
2022-10-17T12:36:17.196Z,101942.22
2022-10-17T12:38:47.822Z,101941.38
2022-10-17T12:41:17.009Z,101944.09
2022-10-17T12:43:44.782Z,101944.28
2022-10-17T12:46:11.909Z,101945.13
2022-10-17T12:48:38.468Z,101936.09
2022-10-17T12:53:57.474Z,101921.59
2022-10-17T12:56:31.742Z,101929.78
2022-10-17T12:58:59.213Z,101923.63
2022-10-17T13:01:30.960Z,101925.31
2022-10-17T13:03:58.485Z,101928.91
2022-10-17T13:06:26.747Z,101933.69
2022-10-17T13:09:13.411Z,101930.09
2022-10-17T13:11:40.075Z,101931.97
2022-10-17T13:14:11.868Z,101929.25
2022-10-17T13:16:39.642Z,101928.53
2022-10-17T13:19:16.494Z,101931.28
2022-10-17T13:22:05.975Z,101916.78
2022-10-17T13:24:38.125Z,101907.75
2022-10-17T13:27:22.568Z,101911.50
2022-10-17T13:29:49.074Z,101902.47
2022-10-17T13:32:15.511Z,101898.84
2022-10-17T13:34:41.921Z,101913.38
2022-10-17T13:37:10.750Z,101908.78
2022-10-17T13:40:03.028Z,101913.53
2022-10-17T13:42:37.941Z,101909.09
2022-10-17T13:45:11.841Z,101910.78
2022-10-17T13:47:39.245Z,101899.88
2022-10-17T13:50:12.763Z,101904.66
2022-10-17T13:52:47.670Z,101910.13
2022-10-17T13:55:17.982Z,101899.34
2022-10-17T13:57:44.402Z,101890.31
2022-10-17T14:00:21.656Z,101892.91
2022-10-17T14:02:48.474Z,101896.63
2022-10-17T14:05:19.742Z,101897.66
2022-10-17T14:08:10.152Z,101894.94
2022-10-17T14:10:35.379Z,101903.81
2022-10-17T14:13:04.315Z,101891.16
2022-10-17T14:15:31.841Z,101898.50
2022-10-17T14:18:02.310Z,101904.16
2022-10-17T14:23:38.007Z,101903.81
2022-10-17T14:26:12.651Z,101911.13
2022-10-17T14:28:40.110Z,101905.53
2022-10-17T14:31:11.557Z,101910.97
2022-10-17T14:33:41.464Z,101919.31
2022-10-17T14:36:09.624Z,101925.66
2022-10-17T14:38:36.351Z,101924.63
2022-10-17T14:44:00.680Z,101930.22
2022-10-17T14:46:27.689Z,101930.22
2022-10-17T14:48:56.046Z,101931.09
2022-10-17T14:51:22.851Z,101931.25
2022-10-17T14:54:08.049Z,101936.56
2022-10-17T14:56:41.658Z,101935.88
2022-10-17T14:59:13.743Z,101935.69
2022-10-17T15:01:44.697Z,101943.88
2022-10-17T15:04:11.043Z,101938.41
2022-10-17T15:06:37.471Z,101935.00
2022-10-17T15:09:04.559Z,101931.25
2022-10-17T15:11:31.012Z,101933.13
2022-10-17T15:13:57.379Z,101929.56
2022-10-17T15:16:30.724Z,101930.22
2022-10-17T15:18:57.453Z,101935.69
2022-10-17T15:21:33.933Z,101931.25
2022-10-17T15:24:06.151Z,101940.28
2022-10-17T15:26:33.613Z,101943.03
2022-10-17T15:29:00.578Z,101943.03
2022-10-17T15:31:28.863Z,101948.47
2022-10-17T15:33:55.234Z,101955.66
2022-10-17T15:36:23.170Z,101954.78
2022-10-17T15:38:50.513Z,101954.78
2022-10-17T15:41:16.995Z,101950.34
2022-10-17T15:43:43.403Z,101964.84
2022-10-17T15:46:12.241Z,101964.00
2022-10-17T15:48:38.721Z,101954.78
2022-10-17T15:51:05.154Z,101955.81
2022-10-17T15:53:31.590Z,101953.25
2022-10-17T15:55:58.673Z,101966.72
2022-10-17T15:58:25.075Z,101966.72
2022-10-17T16:00:51.681Z,101958.72
2022-10-17T16:03:18.103Z,101971.34
2022-10-17T16:05:44.461Z,101973.03
2022-10-17T16:08:10.921Z,101966.72
2022-10-17T16:10:39.339Z,101964.84
2022-10-17T16:13:05.775Z,101971.16
2022-10-17T16:15:32.095Z,101971.34
2022-10-17T16:18:01.574Z,101970.50
2022-10-17T16:20:31.796Z,101970.66
2022-10-17T16:23:00.775Z,101961.44
2022-10-17T16:25:28.169Z,101970.50
2022-10-17T16:27:55.334Z,101968.78
2022-10-17T16:32:49.370Z,101971.53
2022-10-17T16:35:19.948Z,101975.09
2022-10-17T16:37:47.488Z,101980.69
2022-10-17T16:40:14.021Z,101983.44
2022-10-17T16:42:40.454Z,101982.44
2022-10-17T16:45:07.087Z,101982.44
2022-10-17T16:47:33.466Z,101973.53
2022-10-17T16:49:59.893Z,101979.84
2022-10-17T16:52:26.265Z,101974.41
2022-10-17T16:54:53.227Z,101976.28
2022-10-17T16:57:19.721Z,101982.59
2022-10-17T16:59:46.528Z,101987.19
2022-10-17T17:02:15.191Z,101983.44
2022-10-17T17:04:42.641Z,101984.47
2022-10-17T17:07:09.063Z,101984.63
2022-10-17T17:09:35.519Z,101983.59
2022-10-17T17:12:01.977Z,101991.78
2022-10-17T17:14:28.340Z,101988.22
2022-10-17T17:16:54.769Z,101983.78
2022-10-17T17:19:21.156Z,101988.22
2022-10-17T17:21:50.717Z,101985.47
2022-10-17T17:24:17.939Z,101987.38
2022-10-17T17:26:44.382Z,101994.53
2022-10-17T17:29:12.144Z,101990.09
2022-10-17T17:31:39.354Z,101990.94
2022-10-17T17:34:06.044Z,101989.25
2022-10-17T17:36:34.148Z,101989.38
2022-10-17T17:39:01.383Z,101994.69
2022-10-17T17:41:28.235Z,101994.69
2022-10-17T17:43:54.864Z,101998.44
2022-10-17T17:46:21.951Z,102008.50
2022-10-17T17:48:48.989Z,102006.59
2022-10-17T17:51:16.511Z,101995.69
2022-10-17T17:53:43.269Z,102000.31
2022-10-17T17:56:14.095Z,102008.50
2022-10-17T17:58:43.168Z,102000.47
2022-10-17T18:01:12.344Z,102007.63
2022-10-17T18:03:41.064Z,102014.13
2022-10-17T18:06:08.054Z,102019.75
2022-10-17T18:08:35.131Z,102026.91
2022-10-17T18:11:02.393Z,102025.88
2022-10-17T18:13:28.980Z,102028.63
2022-10-17T18:15:57.856Z,102024.00
2022-10-17T18:18:25.279Z,102026.06
2022-10-17T18:20:52.236Z,102032.38
2022-10-17T18:23:18.737Z,102036.13
2022-10-17T18:25:55.095Z,102046.00
2022-10-17T18:28:22.088Z,102047.34
2022-10-17T18:30:48.980Z,102051.66
2022-10-17T18:33:15.402Z,102059.84
2022-10-17T18:35:41.762Z,102067.13
2022-10-17T18:38:08.160Z,102068.03
2022-10-17T18:40:34.569Z,102068.88
2022-10-17T18:43:00.964Z,102068.16
2022-10-17T18:45:27.389Z,102065.28
2022-10-17T18:47:54.228Z,102066.16
2022-10-17T18:50:20.912Z,102068.88
2022-10-17T18:52:50.600Z,102066.16
2022-10-17T18:55:19.724Z,102062.56
2022-10-17T18:57:46.898Z,102062.56
2022-10-17T19:00:13.457Z,102068.03
2022-10-17T19:02:39.861Z,102057.25
2022-10-17T19:05:06.385Z,102067.13
2022-10-17T19:07:32.904Z,102068.03
2022-10-17T19:09:59.395Z,102067.31
2022-10-17T19:12:25.786Z,102071.75
2022-10-17T19:14:53.113Z,102070.03
2022-10-17T19:17:19.675Z,102071.06
2022-10-17T19:19:50.070Z,102063.72
2022-10-17T19:22:16.480Z,102075.31
2022-10-17T19:24:42.959Z,102071.59
2022-10-17T19:27:09.407Z,102080.78
2022-10-17T19:29:35.954Z,102074.47
2022-10-17T19:32:02.702Z,102081.81
2022-10-17T19:34:29.269Z,102074.47
2022-10-17T19:36:55.896Z,102070.03
2022-10-17T19:39:23.511Z,102087.25
2022-10-17T19:41:50.016Z,102092.56
2022-10-17T19:44:16.844Z,102092.72
2022-10-17T19:46:47.001Z,102085.38
2022-10-17T19:49:13.957Z,102090.69
2022-10-17T19:51:40.631Z,102099.03
2022-10-17T19:54:07.098Z,102098.19
2022-10-17T19:56:37.608Z,102093.56
2022-10-17T19:59:06.036Z,102097.16
2022-10-17T20:01:33.841Z,102098.19
2022-10-17T20:04:00.273Z,102108.25
2022-10-17T20:06:27.001Z,102105.34
2022-10-17T20:08:53.782Z,102116.44
2022-10-17T20:11:24.482Z,102117.28
2022-10-17T20:13:50.994Z,102118.97
2022-10-17T20:16:21.196Z,102122.59
2022-10-17T20:18:48.591Z,102117.28
2022-10-17T20:21:17.409Z,102123.75
2022-10-17T20:23:43.972Z,102132.63
2022-10-17T20:26:26.373Z,102130.91
2022-10-17T20:29:00.412Z,102126.50
2022-10-17T20:31:26.926Z,102131.09
2022-10-17T20:33:56.652Z,102135.69
2022-10-17T20:36:23.590Z,102132.81
2022-10-17T20:38:54.356Z,102135.53
2022-10-17T20:41:21.001Z,102131.78
2022-10-17T20:43:49.792Z,102129.22
2022-10-17T20:46:29.460Z,102131.94
2022-10-17T20:49:01.902Z,102141.84
2022-10-17T20:51:28.388Z,102139.28
2022-10-17T20:53:54.838Z,102144.75
2022-10-17T20:56:22.720Z,102145.59
2022-10-17T20:59:00.117Z,102145.75
2022-10-17T21:01:28.199Z,102147.94
2022-10-17T21:03:54.721Z,102147.94
2022-10-17T21:06:21.775Z,102149.16
2022-10-17T21:08:48.929Z,102145.09
2022-10-17T21:11:17.365Z,102143.06
2022-10-17T21:13:44.196Z,102145.47
2022-10-17T21:16:19.680Z,102153.34
2022-10-17T21:18:46.123Z,102153.34
2022-10-17T21:21:15.775Z,102164.09
2022-10-17T21:23:43.305Z,102155.22
2022-10-17T21:26:12.264Z,102156.94
2022-10-17T21:28:39.476Z,102158.63
2022-10-17T21:31:17.169Z,102157.78
2022-10-17T21:33:45.033Z,102164.09
2022-10-17T21:36:11.897Z,102169.56
2022-10-17T21:38:38.768Z,102170.41
2022-10-17T21:41:06.172Z,102172.13
2022-10-17T21:43:33.140Z,102175.72
2022-10-17T21:46:04.116Z,102181.00
2022-10-17T21:48:35.995Z,102183.91
2022-10-17T21:51:03.950Z,102185.78
2022-10-17T21:53:30.598Z,102182.72
2022-10-17T21:56:00.702Z,102188.34
2022-10-17T21:58:27.662Z,102186.47
2022-10-17T22:00:54.621Z,102190.06
2022-10-17T22:03:27.703Z,102189.19
2022-10-17T22:06:06.919Z,102187.31
2022-10-17T22:08:40.827Z,102190.22
2022-10-17T22:11:11.302Z,102195.69
2022-10-17T22:13:37.869Z,102191.06
2022-10-17T22:16:05.854Z,102200.13
2022-10-17T22:18:32.790Z,102200.13
2022-10-17T22:21:06.494Z,102200.13
2022-10-17T22:23:34.209Z,102211.88
2022-10-17T22:26:00.718Z,102215.47
2022-10-17T22:28:27.246Z,102213.75
2022-10-17T22:30:53.742Z,102219.22
2022-10-17T22:35:47.856Z,102208.31
2022-10-17T22:38:14.614Z,102211.03
2022-10-17T22:40:43.349Z,102209.16
2022-10-17T22:43:09.770Z,102203.69
2022-10-17T22:45:36.242Z,102212.91
2022-10-17T22:48:02.647Z,102206.44
2022-10-17T22:50:29.010Z,102204.72
2022-10-17T22:52:55.432Z,102206.59
2022-10-17T22:55:21.786Z,102208.31
2022-10-17T22:57:48.350Z,102206.28
2022-10-17T23:00:14.837Z,102209.88
2022-10-17T23:02:41.422Z,102209.16
2022-10-17T23:05:07.970Z,102200.13
2022-10-17T23:07:34.633Z,102197.38
2022-10-17T23:10:00.989Z,102194.66
2022-10-17T23:12:27.484Z,102200.13
2022-10-17T23:14:53.899Z,102204.72
2022-10-17T23:17:20.253Z,102205.56
2022-10-17T23:19:46.627Z,102191.94
2022-10-17T23:22:13.007Z,102198.25
2022-10-17T23:24:39.344Z,102193.63
2022-10-17T23:27:05.822Z,102195.69
2022-10-17T23:29:33.144Z,102196.53
2022-10-17T23:31:59.553Z,102197.56
2022-10-17T23:34:25.976Z,102197.56
2022-10-17T23:36:52.766Z,102201.13
2022-10-17T23:39:19.168Z,102194.81
2022-10-17T23:41:45.658Z,102189.38
2022-10-17T23:44:12.409Z,102203.03
2022-10-17T23:46:38.945Z,102209.50
2022-10-17T23:49:05.512Z,102207.63
2022-10-17T23:51:32.419Z,102215.81
2022-10-17T23:53:58.784Z,102208.47
2022-10-17T23:56:25.201Z,102203.03
2022-10-17T23:58:51.586Z,102209.31
